Pagina principale
METAR-TAF:

METAR-TAF

Aeroporti :

Aeroporto di Magadino

Locarno, Svizzera

latitudine: 46-09-55N, longitudine: 8-52-40E, altezza: 198 m

Osservazione

Il bollettino è stato emesso 12 minuti fa, alle 05:20 UTC
Vento 1 kt da est/nord-est
Temperature -1°C
Umidità 100%
Pressione 1023 hPa
Visibilità: 4800 m
foschia

METAR: LSZL 200520Z AUTO 06001KT 4800NDV BR NCD M01/M01 Q1023 RMK

Ora: 06:32 (05:32 UTC)

Previsione

Il bollettino è stato emesso 12 ore e 7 minuti fa, alle 17:25 UTC
Previsione valida dal 19 alle 18 UTC al 20 alle 03 UTC
Vento 1 kt da direzioni variabili
Visibilità 10 km o più
Poco nuvoloso ad un'altezza di 3400 ft
Temporaneamente
dal 19 alle 18 UTC al 19 alle 23 UTC
Visibilità 10 km o più
nessuna nube inferiore a 1500 m e nessun cumulonembo
Probabilità 30%
dal 19 alle 23 UTC al 20 alle 03 UTC
Visibilità: 4500 m
foschia

TAF: LSZL 191725Z 1918/2003 VRB01KT 9999 FEW034 TEMPO 1918/1923 CAVOK PROB30 1923/2003 4500 BR

Osservazioni e previsioni meteorologiche di più di 4000 aeroporti (messaggi METAR e TAF).

Le stazioni disponibili sono rappresentate dai dischi gialli e rossi sulla carta.

Puntare il mouse per vedere il nome della stazione.

Clicca sopra per visualizzare le osservazioni e previsioni meteorologiche.

Per cambiare la mappa : fare clic sui pulsanti verdi con una croce nera per ingrandire, il pulsante verde con un trattino per diminuire, o sulla freccia verde per le mappe adiacenti.


METAR-TAF: